Time;durP1;ratioP1;P1;durP2;ratioP2;P2;SDS_P1;SDS_P2;PMS_P1;PMS_P2;Temp;Humidity;BMP_temperature;BMP_pressure;BME280_temperature;BME280_humidity;BME280_pressure;Samples;Min_cycle;Max_cycle;Signal;HPM_P1;HPM_P2
2022/11/01 00:01:32;;;;;;;18.48;7.00;;;;;;;17.72;48.80;100356.59;5052238;28;20025;-36
2022/11/01 00:03:58;;;;;;;19.30;6.47;;;;;;;17.66;49.19;100360.22;5052132;28;20039;-36
2022/11/01 00:06:24;;;;;;;16.00;6.55;;;;;;;17.76;48.95;100366.66;5052301;28;20029;-36
2022/11/01 00:08:49;;;;;;;14.35;6.22;;;;;;;17.75;49.10;100359.63;5052195;28;20021;-36
2022/11/01 00:11:16;;;;;;;16.17;6.47;;;;;;;17.67;48.95;100356.47;5051882;28;20109;-37
2022/11/01 00:13:44;;;;;;;14.52;6.68;;;;;;;17.55;49.96;100359.16;5051702;28;20473;-37
2022/11/01 00:16:09;;;;;;;16.67;6.47;;;;;;;17.64;49.10;100354.25;5051688;28;20025;-37
2022/11/01 00:18:35;;;;;;;16.17;6.53;;;;;;;17.63;49.40;100356.13;5051806;28;20081;-36
2022/11/01 00:21:00;;;;;;;18.45;6.70;;;;;;;17.63;49.79;100358.00;5051807;28;20085;-35
2022/11/01 00:23:25;;;;;;;15.80;6.90;;;;;;;17.49;50.09;100354.72;5051576;28;20056;-36
2022/11/01 00:25:51;;;;;;;12.77;6.32;;;;;;;17.49;49.64;100349.34;5051594;28;20174;-36
2022/11/01 00:28:17;;;;;;;19.15;6.72;;;;;;;17.32;50.04;100354.59;5051817;28;20037;-36
2022/11/01 00:30:42;;;;;;;17.45;7.43;;;;;;;17.35;50.05;100356.84;5051791;28;20537;-36
2022/11/01 00:33:07;;;;;;;13.75;6.38;;;;;;;17.27;50.36;100357.16;5051788;28;20028;-37
2022/11/01 00:35:37;;;;;;;18.50;6.43;;;;;;;17.41;50.21;100358.59;5051575;28;20104;-36
2022/11/01 00:38:03;;;;;;;;;;;;;;;17.72;49.40;100353.91;5051601;28;20025;-36
2022/11/01 00:40:28;;;;;;;15.85;7.07;;;;;;;17.44;50.05;100358.13;5051209;28;20058;-36
2022/11/01 00:42:54;;;;;;;13.73;6.60;;;;;;;17.32;50.12;100355.41;5050804;28;20094;-36
2022/11/01 00:45:19;;;;;;;15.15;6.72;;;;;;;17.24;50.02;100358.47;5051530;28;20108;-37
2022/11/01 00:47:46;;;;;;;14.43;6.55;;;;;;;17.33;50.43;100350.88;5051674;28;20108;-36
2022/11/01 00:50:11;;;;;;;19.48;7.38;;;;;;;17.36;50.12;100351.22;5051136;28;20033;-36
2022/11/01 00:52:37;;;;;;;17.63;6.50;;;;;;;17.30;50.46;100357.53;5051131;28;20193;-36
2022/11/01 00:55:02;;;;;;;16.52;6.70;;;;;;;17.32;50.67;100352.72;5051171;28;20036;-36
2022/11/01 00:57:28;;;;;;;12.15;6.43;;;;;;;17.08;51.17;100359.97;5050906;28;20033;-36
2022/11/01 00:59:53;;;;;;;11.98;6.80;;;;;;;17.08;51.09;100357.28;5051163;28;20031;-36
2022/11/01 01:02:18;;;;;;;20.15;6.80;;;;;;;16.92;51.29;100352.56;5051006;28;20029;-36
2022/11/01 01:04:44;;;;;;;11.05;6.32;;;;;;;16.87;51.99;100349.72;5050784;28;20021;-36
2022/11/01 01:07:09;;;;;;;16.98;7.30;;;;;;;16.85;51.08;100358.06;5050860;28;20021;-36
2022/11/01 01:09:35;;;;;;;14.77;7.13;;;;;;;16.75;50.97;100342.47;5050958;28;20394;-38
2022/11/01 01:12:01;;;;;;;14.80;6.97;;;;;;;16.84;51.18;100353.72;5050609;28;20103;-36
2022/11/01 01:14:27;;;;;;;17.95;7.15;;;;;;;16.76;51.95;100351.34;5050864;28;20036;-36
2022/11/01 01:16:53;;;;;;;14.50;6.72;;;;;;;16.73;51.39;100351.78;5050792;28;20319;-36
2022/11/01 01:19:18;;;;;;;20.63;6.78;;;;;;;16.70;51.55;100349.56;5050556;28;20133;-36
2022/11/01 01:21:44;;;;;;;12.23;6.60;;;;;;;16.59;52.22;100356.53;5050874;28;20102;-36
2022/11/01 01:24:09;;;;;;;15.93;6.85;;;;;;;16.73;51.43;100352.59;5050334;28;20059;-36
2022/11/01 01:26:35;;;;;;;15.85;7.10;;;;;;;16.52;51.67;100353.09;5050141;28;20032;-35
2022/11/01 01:29:00;;;;;;;18.75;7.32;;;;;;;16.67;51.72;100352.69;5050628;28;20109;-35
2022/11/01 01:31:25;;;;;;;13.82;6.78;;;;;;;16.75;51.17;100347.00;5050632;28;20121;-35
2022/11/01 01:33:51;;;;;;;19.67;6.93;;;;;;;16.80;51.27;100349.81;5050642;28;20052;-37
2022/11/01 01:36:16;;;;;;;15.20;6.90;;;;;;;16.63;51.83;100328.16;5050585;28;20064;-36
2022/11/01 01:38:42;;;;;;;18.20;6.97;;;;;;;16.71;51.75;100343.13;5050201;28;20025;-36
2022/11/01 01:43:51;;;;;;;18.20;7.20;;;;;;;16.68;51.56;100343.56;5050472;28;20507;-37
2022/11/01 01:46:17;;;;;;;15.50;7.00;;;;;;;16.64;51.55;100347.78;5049799;28;20029;-37
2022/11/01 01:48:45;;;;;;;18.33;7.53;;;;;;;16.56;51.85;100351.59;5050126;28;20028;-37
2022/11/01 01:51:16;;;;;;;18.38;7.22;;;;;;;16.53;52.27;100349.38;5050194;28;20157;-37
2022/11/01 01:53:46;;;;;;;15.60;7.03;;;;;;;16.46;52.50;100352.16;5050224;28;20383;-35
2022/11/01 01:56:14;;;;;;;16.27;7.28;;;;;;;16.54;51.49;100359.88;5050056;28;20106;-37
2022/11/01 01:58:49;;;;;;;16.48;6.88;;;;;;;16.35;51.76;100353.72;5049736;28;20441;-37
2022/11/01 02:01:14;;;;;;;14.73;7.28;;;;;;;16.10;52.82;100356.53;5048646;28;20086;-36
2022/11/01 02:03:41;;;;;;;18.75;6.97;;;;;;;16.07;52.56;100357.00;5050100;28;20403;-36
2022/11/01 02:06:13;;;;;;;14.38;6.78;;;;;;;16.14;52.42;100356.91;5049750;28;20439;-43
2022/11/01 02:08:44;;;;;;;14.48;6.85;;;;;;;16.19;52.74;100359.75;5049936;28;20098;-36
2022/11/01 02:11:10;;;;;;;16.90;7.05;;;;;;;16.02;52.90;100362.22;5049613;28;20071;-36
2022/11/01 02:13:36;;;;;;;18.40;6.78;;;;;;;16.01;52.90;100369.44;5049818;28;20021;-36
2022/11/01 02:16:32;;;;;;;11.32;6.50;;;;;;;16.11;52.51;100368.09;5049799;28;20087;-36
2022/11/01 02:19:30;;;;;;;14.30;6.55;;;;;;;16.14;52.14;100364.97;5049444;28;20033;-36
2022/11/01 02:22:01;;;;;;;12.38;6.82;;;;;;;15.93;53.21;100371.59;5049672;28;20068;-36
2022/11/01 02:24:52;;;;;;;13.50;6.40;;;;;;;15.92;52.89;100370.78;5049308;28;20071;-36
2022/11/01 02:27:20;;;;;;;17.53;6.93;;;;;;;15.99;52.52;100368.00;5049513;28;20061;-36
2022/11/01 02:30:01;;;;;;;16.02;6.70;;;;;;;15.90;53.15;100380.94;5050129;28;20055;-36
2022/11/01 02:32:43;;;;;;;;;;;;;;;16.10;52.96;100380.69;5050006;28;20054;-35
2022/11/01 02:35:11;;;;;;;14.60;6.60;;;;;;;15.86;52.88;100389.63;5049739;28;19916;-37
2022/11/01 02:37:57;;;;;;;13.50;6.80;;;;;;;15.85;52.63;100386.13;5053189;28;20460;-36
2022/11/01 02:40:34;;;;;;;14.23;6.38;;;;;;;15.89;52.87;100389.19;5053766;28;20033;-36
2022/11/01 02:43:05;;;;;;;14.63;6.53;;;;;;;15.93;53.15;100382.34;5053218;28;20020;-35
2022/11/01 02:45:35;;;;;;;13.55;6.45;;;;;;;15.93;52.19;100388.50;5054016;28;20025;-36
2022/11/01 02:48:02;;;;;;;12.10;6.05;;;;;;;15.85;52.82;100391.50;5053770;28;20055;-35
2022/11/01 02:50:52;;;;;;;14.90;6.10;;;;;;;15.93;52.99;100388.50;5053465;28;20488;-35
2022/11/01 02:53:18;;;;;;;12.18;6.18;;;;;;;15.83;53.17;100391.72;5052930;28;20037;-35
2022/11/01 02:55:43;;;;;;;13.50;6.25;;;;;;;15.77;53.05;100397.16;5053549;28;20027;-35
2022/11/01 02:58:21;;;;;;;12.85;6.47;;;;;;;15.68;53.83;100390.41;5053371;28;20112;-35
2022/11/01 03:00:46;;;;;;;12.73;6.47;;;;;;;15.76;53.29;100399.03;5053853;28;20428;-36
2022/11/01 03:03:18;;;;;;;10.23;6.30;;;;;;;15.50;53.76;100391.19;5053726;28;20112;-35
2022/11/01 03:06:04;;;;;;;12.85;6.00;;;;;;;15.67;53.26;100386.91;5053841;28;20140;-36
2022/11/01 03:08:53;;;;;;;12.65;6.63;;;;;;;15.60;53.83;100389.66;5053507;28;20055;-36
2022/11/01 03:11:28;;;;;;;11.60;6.30;;;;;;;15.60;52.93;100395.00;5053765;28;20424;-36
2022/11/01 03:14:09;;;;;;;14.40;6.63;;;;;;;15.71;53.13;100400.72;5054381;28;20028;-36
2022/11/01 03:16:42;;;;;;;14.40;6.63;;;;;;;15.73;53.46;100399.47;5053802;28;20400;-36
2022/11/01 03:19:31;;;;;;;12.82;6.47;;;;;;;15.61;53.98;100393.13;5053643;28;20048;-37
2022/11/01 03:22:03;;;;;;;13.02;6.28;;;;;;;15.52;53.06;100391.81;5053497;28;20029;-36
2022/11/01 03:24:50;;;;;;;13.27;6.45;;;;;;;15.45;54.01;100394.53;5053674;28;20441;-36
2022/11/01 03:27:32;;;;;;;14.20;6.15;;;;;;;15.44;54.16;100384.88;5053721;28;20016;-36
2022/11/01 03:30:10;;;;;;;15.77;6.50;;;;;;;15.69;53.87;100392.03;5053555;28;20029;-36
2022/11/01 03:32:44;;;;;;;16.35;6.30;;;;;;;15.64;53.96;100401.56;5053404;28;20033;-36
2022/11/01 03:35:17;;;;;;;14.85;6.05;;;;;;;15.57;54.20;100400.84;5053531;28;20104;-36
2022/11/01 03:37:45;;;;;;;15.35;6.80;;;;;;;15.60;54.07;100399.56;5053361;28;20051;-35
2022/11/01 03:40:14;;;;;;;14.23;6.78;;;;;;;15.48;53.97;100402.16;5052941;28;20020;-38
2022/11/01 03:42:43;;;;;;;;;;;;;;;15.40;54.08;100403.25;5053915;28;20036;-35
2022/11/01 03:45:12;;;;;;;13.38;5.97;;;;;;;15.35;53.97;100407.63;5052610;28;20297;-35
2022/11/01 03:47:37;;;;;;;12.48;5.85;;;;;;;15.27;54.22;100407.88;5052759;28;20036;-35
2022/11/01 03:50:22;;;;;;;12.20;6.60;;;;;;;15.33;54.12;100404.34;5053123;28;20031;-35
2022/11/01 03:52:48;;;;;;;12.02;5.88;;;;;;;15.34;53.79;100403.28;5052968;28;20032;-35
2022/11/01 03:55:18;;;;;;;16.35;5.75;;;;;;;15.32;54.97;100405.38;5053451;28;20029;-36
2022/11/01 03:57:45;;;;;;;15.35;5.80;;;;;;;15.38;54.17;100412.53;5052960;28;20546;-37
2022/11/01 04:00:14;;;;;;;9.95;5.43;;;;;;;15.29;54.05;100408.47;5053845;28;20029;-38
2022/11/01 04:02:40;;;;;;;13.63;5.78;;;;;;;15.40;54.07;100405.09;5053313;28;20036;-36
2022/11/01 04:05:06;;;;;;;14.40;5.15;;;;;;;15.48;54.01;100402.16;5053239;28;20096;-37
2022/11/01 04:07:32;;;;;;;32.30;17.63;;;;;;;15.43;54.24;100402.78;5052944;28;20378;-37
2022/11/01 04:09:57;;;;;;;33.00;20.27;;;;;;;15.30;53.50;100375.28;5052899;28;20056;-37
2022/11/01 04:12:22;;;;;;;21.17;12.68;;;;;;;15.44;54.07;100403.63;5052464;28;20040;-36
2022/11/01 04:20:34;;;;;;;10.35;5.13;;;;;;;15.40;53.74;100405.09;5051627;28;20384;-35
2022/11/01 04:23:04;;;;;;;10.32;4.57;;;;;;;15.38;54.37;100404.50;5051833;28;20132;-36
2022/11/01 04:25:30;;;;;;;11.90;5.07;;;;;;;15.46;54.03;100406.91;5052051;28;20024;-36
2022/11/01 04:27:56;;;;;;;9.35;4.53;;;;;;;15.39;54.16;100411.50;5051844;28;20037;-37
2022/11/01 04:30:26;;;;;;;7.65;4.75;;;;;;;15.36;53.51;100409.25;5052063;28;20013;-35
2022/11/01 04:32:51;;;;;;;10.98;4.60;;;;;;;15.41;53.56;100396.81;5052087;28;20017;-36
2022/11/01 04:35:17;;;;;;;10.57;4.60;;;;;;;15.55;53.64;100408.25;5051846;28;20028;-36
2022/11/01 04:37:43;;;;;;;11.38;5.10;;;;;;;15.54;53.91;100405.81;5051933;28;20032;-35
2022/11/01 04:40:09;;;;;;;11.68;5.03;;;;;;;15.48;53.31;100412.88;5051832;28;20024;-37
2022/11/01 04:42:38;;;;;;;12.45;4.90;;;;;;;15.25;53.99;100408.94;5051819;28;20013;-36
2022/11/01 04:45:06;;;;;;;12.10;5.25;;;;;;;15.43;53.66;100416.19;5047813;28;20027;-37
2022/11/01 04:47:31;;;;;;;13.35;5.53;;;;;;;15.34;53.40;100405.97;5051629;28;20029;-37
2022/11/01 04:49:57;;;;;;;18.08;9.88;;;;;;;15.36;53.95;100418.09;5052079;28;20032;-37
2022/11/01 04:52:22;;;;;;;19.58;9.13;;;;;;;15.27;54.31;100414.06;5051860;28;20017;-37
2022/11/01 04:54:48;;;;;;;15.68;6.90;;;;;;;15.41;53.22;100420.97;5049844;28;20261;-37
2022/11/01 04:57:23;;;;;;;10.43;5.80;;;;;;;15.36;53.97;100415.44;5051511;28;20017;-37
2022/11/01 04:59:52;;;;;;;11.25;5.72;;;;;;;15.30;54.21;100420.84;5050277;28;20416;-36
2022/11/01 05:02:22;;;;;;;13.35;5.18;;;;;;;15.35;53.90;100416.47;5051386;28;20060;-36
2022/11/01 05:04:47;;;;;;;;;;;;;;;15.45;53.91;100418.66;5052139;28;20072;-36
2022/11/01 05:07:14;;;;;;;12.60;5.00;;;;;;;15.29;54.35;100421.88;5052000;28;20408;-36
2022/11/01 05:09:41;;;;;;;9.88;4.97;;;;;;;15.48;54.23;100425.44;5051415;28;20040;-36
2022/11/01 05:12:07;;;;;;;14.82;7.97;;;;;;;15.78;54.74;100431.84;5051676;28;20090;-36
2022/11/01 05:14:32;;;;;;;14.40;7.05;;;;;;;16.00;54.17;100432.22;5051579;28;20028;-36
2022/11/01 05:16:58;;;;;;;14.25;6.65;;;;;;;16.18;52.35;100438.63;5051199;28;20450;-36
2022/11/01 05:19:24;;;;;;;13.35;5.88;;;;;;;16.28;52.61;100440.78;5051493;28;20028;-36
2022/11/01 05:21:49;;;;;;;18.88;7.28;;;;;;;16.41;51.68;100446.00;5051661;28;20485;-36
2022/11/01 05:24:15;;;;;;;29.23;17.10;;;;;;;16.39;52.25;100438.22;5051139;28;20055;-36
2022/11/01 05:26:41;;;;;;;35.38;17.88;;;;;;;16.51;52.50;100445.50;5051569;28;20095;-36
2022/11/01 05:29:06;;;;;;;16.80;7.15;;;;;;;16.85;50.34;100445.91;5051346;28;20429;-36
2022/11/01 05:31:32;;;;;;;21.42;6.65;;;;;;;17.06;51.41;100444.59;5050060;28;20029;-36
2022/11/01 05:33:57;;;;;;;15.98;6.60;;;;;;;17.17;49.30;100433.88;5037972;28;20021;-37
2022/11/01 05:36:23;;;;;;;18.08;6.70;;;;;;;17.38;49.40;100442.44;5031511;28;20052;-37
2022/11/01 05:38:48;;;;;;;19.40;6.95;;;;;;;17.23;50.26;100442.91;5031661;28;20026;-36
2022/11/01 05:41:14;;;;;;;16.42;6.70;;;;;;;17.46;49.90;100438.59;5031585;28;20021;-37
2022/11/01 05:43:39;;;;;;;13.73;6.47;;;;;;;17.88;48.02;100454.72;5031383;28;20024;-36
2022/11/01 05:46:06;;;;;;;19.35;6.97;;;;;;;18.15;47.33;100453.16;5031248;28;20079;-35
2022/11/01 05:48:32;;;;;;;19.92;6.63;;;;;;;18.23;46.86;100451.16;5031667;28;20041;-37
2022/11/01 05:50:57;;;;;;;18.23;6.88;;;;;;;18.15;47.30;100458.53;5031657;28;20029;-36
2022/11/01 05:53:23;;;;;;;15.25;6.53;;;;;;;18.20;47.44;100465.09;5031183;28;20083;-37
2022/11/01 05:55:48;;;;;;;18.15;6.60;;;;;;;18.62;48.08;100468.41;5030859;28;20563;-36
2022/11/01 05:58:14;;;;;;;23.15;6.25;;;;;;;19.06;45.69;100468.72;5031039;28;20104;-36
2022/11/01 06:00:39;;;;;;;14.23;6.13;;;;;;;19.25;45.12;100461.25;5035859;28;21343;-37
2022/11/01 06:03:05;;;;;;;18.70;6.47;;;;;;;19.63;44.61;100461.56;5059470;28;20123;-36
2022/11/01 06:05:31;;;;;;;19.38;5.97;;;;;;;20.11;43.20;100462.88;5071174;28;20028;-36
2022/11/01 06:07:59;;;;;;;16.95;5.80;;;;;;;20.28;42.27;100474.44;5068949;28;20032;-37
2022/11/01 06:10:25;;;;;;;14.13;5.78;;;;;;;20.44;41.91;100477.34;5044222;28;20034;-36
2022/11/01 06:12:50;;;;;;;17.73;6.90;;;;;;;20.53;41.86;100475.03;5055388;28;20027;-36
2022/11/01 06:15:16;;;;;;;25.98;6.47;;;;;;;20.99;41.05;100481.78;5063578;28;20128;-36
2022/11/01 06:17:41;;;;;;;14.65;5.75;;;;;;;21.22;40.83;100479.84;5047555;28;20403;-41
2022/11/01 06:20:07;;;;;;;18.75;6.32;;;;;;;21.56;39.78;100469.63;5050230;28;20023;-42
2022/11/01 06:22:36;;;;;;;20.50;9.40;;;;;;;21.82;39.05;100470.63;5050282;28;20017;-44
2022/11/01 06:25:01;;;;;;;20.48;8.88;;;;;;;22.06;38.72;100473.75;5049956;28;20083;-42
2022/11/01 06:27:27;;;;;;;23.00;10.50;;;;;;;22.42;38.33;100478.59;5066639;28;20117;-43
2022/11/01 06:29:53;;;;;;;23.98;9.98;;;;;;;22.88;37.07;100481.44;5052618;28;20050;-41
2022/11/01 06:32:18;;;;;;;29.15;11.40;;;;;;;23.21;36.49;100479.38;5050089;28;20052;-42
2022/11/01 06:34:43;;;;;;;29.75;9.55;;;;;;;23.47;35.70;100479.38;5050378;28;20035;-43
2022/11/01 06:37:09;;;;;;;22.60;8.13;;;;;;;23.64;35.58;100479.13;5050299;28;20029;-43
2022/11/01 06:39:34;;;;;;;17.58;6.47;;;;;;;23.79;35.37;100481.84;5049869;28;20021;-43
2022/11/01 06:42:00;;;;;;;14.60;5.47;;;;;;;24.20;34.75;100474.44;5050401;28;20028;-42
2022/11/01 06:44:25;;;;;;;23.83;7.03;;;;;;;24.73;33.77;100481.31;5049568;28;20020;-43
2022/11/01 06:46:53;;;;;;;19.52;6.72;;;;;;;24.83;33.38;100484.00;5049831;28;20455;-43
2022/11/01 06:49:18;;;;;;;20.42;7.40;;;;;;;25.23;32.69;100479.41;5050002;28;20098;-42
2022/11/01 06:51:44;;;;;;;15.50;6.80;;;;;;;25.71;32.24;100481.47;5050501;28;20111;-42
2022/11/01 06:54:10;;;;;;;24.40;9.65;;;;;;;25.99;31.89;100481.75;5049935;28;20404;-41
2022/11/01 06:56:35;;;;;;;32.47;11.85;;;;;;;25.54;32.23;100481.88;5050029;28;20108;-43
2022/11/01 06:59:00;;;;;;;22.90;8.98;;;;;;;25.88;31.92;100481.03;5050306;28;20023;-43
2022/11/01 07:01:27;;;;;;;17.42;7.32;;;;;;;25.75;32.15;100485.22;5050699;28;20397;-44
2022/11/01 07:03:52;;;;;;;17.35;6.35;;;;;;;26.00;31.72;100483.38;5050503;28;20111;-42
2022/11/01 07:06:18;;;;;;;14.27;5.18;;;;;;;26.30;31.13;100471.34;5049975;28;20095;-42
2022/11/01 07:08:44;;;;;;;11.63;5.20;;;;;;;26.40;30.98;100473.91;5050270;28;20021;-43
2022/11/01 07:11:09;;;;;;;12.95;5.32;;;;;;;26.58;30.49;100475.06;5049779;28;20032;-42
2022/11/01 07:13:37;;;;;;;11.30;4.90;;;;;;;26.79;30.36;100485.72;5050131;28;20396;-43
2022/11/01 07:16:03;;;;;;;14.43;5.43;;;;;;;26.96;29.96;100472.41;5049644;28;20110;-42
2022/11/01 07:18:30;;;;;;;11.70;5.10;;;;;;;27.30;29.65;100479.53;5048979;28;20025;-41
2022/11/01 07:20:56;;;;;;;17.42;6.00;;;;;;;27.47;29.16;100470.81;5050006;28;20032;-42
2022/11/01 07:23:21;;;;;;;14.15;5.70;;;;;;;27.70;28.88;100474.50;5051350;28;20091;-46
2022/11/01 07:25:51;;;;;;;14.20;5.60;;;;;;;27.70;29.00;100479.97;5053151;28;20256;-43
2022/11/01 07:28:17;;;;;;;44.60;10.90;;;;;;;27.65;28.94;100472.69;5053731;28;20070;-43
2022/11/01 07:30:45;;;;;;;25.70;9.05;;;;;;;27.65;28.89;100469.13;5053092;28;20021;-37
2022/11/01 07:33:11;;;;;;;25.27;7.20;;;;;;;27.86;28.50;100478.59;5053027;28;20021;-37
2022/11/01 07:35:36;;;;;;;13.13;5.72;;;;;;;27.61;28.74;100463.47;5053136;28;20102;-37
2022/11/01 07:38:02;;;;;;;16.73;6.20;;;;;;;27.89;28.51;100474.47;5052612;28;20193;-36
2022/11/01 07:40:27;;;;;;;13.68;5.50;;;;;;;27.82;28.80;100476.78;5052780;28;20427;-37
2022/11/01 07:42:58;;;;;;;17.80;7.25;;;;;;;27.31;29.25;100481.19;5053209;28;20124;-43
2022/11/01 07:45:26;;;;;;;17.42;6.90;;;;;;;27.46;28.76;100469.19;5053380;28;20020;-43
2022/11/01 07:47:51;;;;;;;15.13;5.53;;;;;;;27.93;28.13;100477.41;5052887;28;20044;-42
2022/11/01 07:50:17;;;;;;;14.00;5.50;;;;;;;28.08;27.67;100471.63;5051821;28;20025;-43
2022/11/01 07:52:42;;;;;;;9.00;4.28;;;;;;;27.99;28.07;100477.03;5043874;28;20035;-44
2022/11/01 07:55:08;;;;;;;13.77;5.10;;;;;;;28.04;28.57;100468.69;5032766;28;20029;-43
2022/11/01 07:57:40;;;;;;;11.20;4.97;;;;;;;28.29;27.68;100469.31;5032614;28;20028;-43
2022/11/01 08:00:08;;;;;;;10.65;5.13;;;;;;;28.36;27.25;100468.91;5032594;28;20028;-42
2022/11/01 08:02:34;;;;;;;18.55;7.05;;;;;;;28.24;27.73;100475.72;5037706;28;20115;-45
2022/11/01 08:04:59;;;;;;;13.50;5.95;;;;;;;28.44;27.46;100469.03;5037912;28;20156;-43
2022/11/01 08:07:25;;;;;;;12.68;5.72;;;;;;;28.37;27.30;100460.41;5032723;28;20017;-43
2022/11/01 08:09:50;;;;;;;14.23;5.75;;;;;;;27.72;28.43;100466.00;5032418;28;20457;-42
2022/11/01 08:12:15;;;;;;;16.30;6.90;;;;;;;27.64;28.63;100457.38;5035755;28;20188;-42
2022/11/01 08:14:41;;;;;;;15.73;6.28;;;;;;;27.19;29.06;100461.66;5041585;28;20075;-44
2022/11/01 08:17:07;;;;;;;16.17;6.63;;;;;;;27.78;28.47;100456.59;5040717;28;20559;-44
2022/11/01 08:19:33;;;;;;;11.40;4.70;;;;;;;28.14;27.66;100458.69;5042816;28;20036;-42
2022/11/01 08:21:58;;;;;;;11.82;4.93;;;;;;;28.30;27.22;100446.31;5035094;28;20448;-45
2022/11/01 08:24:24;;;;;;;11.75;5.15;;;;;;;27.92;27.87;100449.25;5038992;28;20054;-46
2022/11/01 08:26:51;;;;;;;14.88;4.95;;;;;;;28.11;28.38;100453.84;5033725;28;20082;-43
2022/11/01 08:29:16;;;;;;;7.53;4.68;;;;;;;27.49;28.33;100446.72;5040427;28;20030;-43
2022/11/01 08:31:42;;;;;;;11.88;4.55;;;;;;;27.72;28.41;100453.16;5031811;28;20045;-42
2022/11/01 08:34:08;;;;;;;11.98;4.50;;;;;;;28.06;28.26;100452.00;5031575;28;20516;-42
2022/11/01 08:36:33;;;;;;;13.45;4.70;;;;;;;28.35;28.00;100448.97;5031975;28;20034;-42
2022/11/01 08:39:00;;;;;;;10.38;4.45;;;;;;;28.49;27.70;100448.94;5031907;28;20033;-43
2022/11/01 08:41:27;;;;;;;10.07;4.60;;;;;;;28.75;27.59;100443.75;5031695;28;20466;-42
2022/11/01 08:43:53;;;;;;;14.40;4.88;;;;;;;28.58;27.63;100440.84;5032301;28;20061;-42
2022/11/01 08:46:18;;;;;;;14.20;4.82;;;;;;;28.74;27.45;100441.31;5032431;28;20179;-43
2022/11/01 08:48:46;;;;;;;7.40;4.53;;;;;;;28.97;27.16;100448.41;5031826;28;20476;-42
2022/11/01 08:51:12;;;;;;;13.55;5.32;;;;;;;28.84;26.90;100441.88;5031853;28;20048;-42
2022/11/01 08:53:37;;;;;;;10.75;4.75;;;;;;;28.87;27.39;100440.44;5031859;28;20413;-43
2022/11/01 08:56:03;;;;;;;11.43;4.95;;;;;;;29.10;27.11;100435.78;5031978;28;20365;-42
2022/11/01 08:58:28;;;;;;;11.52;4.75;;;;;;;28.88;27.25;100433.03;5045382;28;20044;-43
2022/11/01 09:00:54;;;;;;;12.27;4.85;;;;;;;29.01;27.12;100434.91;5046933;28;20029;-41
2022/11/01 09:03:19;;;;;;;12.65;4.55;;;;;;;29.01;27.33;100434.91;5050304;28;20035;-43
2022/11/01 09:05:44;;;;;;;10.38;4.65;;;;;;;29.40;26.86;100434.25;5070156;28;20024;-43
2022/11/01 09:08:10;;;;;;;13.68;5.03;;;;;;;29.35;26.47;100430.84;5041582;28;20022;-41
2022/11/01 09:10:35;;;;;;;15.55;5.35;;;;;;;29.66;26.16;100430.03;5044408;28;20025;-41
2022/11/01 09:13:01;;;;;;;12.35;4.95;;;;;;;29.78;25.63;100420.13;5044100;28;20040;-44
2022/11/01 09:15:27;;;;;;;11.40;4.90;;;;;;;29.14;26.56;100419.56;5050893;28;20028;-42
2022/11/01 09:17:52;;;;;;;14.13;4.85;;;;;;;29.15;26.74;100427.50;5047989;28;20119;-42
2022/11/01 09:20:18;;;;;;;16.08;6.15;;;;;;;29.18;26.71;100424.09;5049321;28;20029;-45
2022/11/01 09:22:44;;;;;;;16.05;5.85;;;;;;;29.35;26.46;100417.13;5050040;28;20039;-42
2022/11/01 09:25:10;;;;;;;14.98;7.18;;;;;;;29.48;26.23;100415.44;5048261;28;20686;-42
2022/11/01 09:27:35;;;;;;;18.05;7.05;;;;;;;29.59;26.38;100406.63;5050148;28;20099;-41
2022/11/01 09:30:03;;;;;;;17.92;6.07;;;;;;;30.06;25.75;100406.16;5050339;28;20033;-42
2022/11/01 09:32:28;;;;;;;16.13;5.10;;;;;;;30.44;25.63;100400.13;5050289;28;20025;-43
2022/11/01 09:34:54;;;;;;;23.90;6.82;;;;;;;30.48;24.95;100403.06;5049716;28;20035;-41
2022/11/01 09:37:19;;;;;;;21.42;7.00;;;;;;;29.70;26.27;100403.59;5049695;28;20389;-42
2022/11/01 09:39:47;;;;;;;13.00;6.35;;;;;;;30.14;25.35;100377.13;5050273;28;20344;-40
2022/11/01 09:42:47;;;;;;;27.35;10.82;;;;;;;30.09;25.67;100388.28;5050212;28;20021;-43
2022/11/01 09:45:19;;;;;;;17.83;5.57;;;;;;;29.82;25.70;100395.63;5049822;28;20182;-42
2022/11/01 09:47:49;;;;;;;12.65;4.40;;;;;;;29.74;25.53;100385.41;5049339;28;20484;-42
2022/11/01 09:50:29;;;;;;;13.82;4.60;;;;;;;29.37;26.39;100388.28;5049350;28;20047;-41
2022/11/01 09:52:55;;;;;;;10.52;4.40;;;;;;;29.13;26.94;100383.16;5047739;28;20025;-43
2022/11/01 09:55:39;;;;;;;9.52;4.10;;;;;;;29.35;26.94;100379.56;5049457;28;20079;-44
2022/11/01 09:58:32;;;;;;;14.13;4.20;;;;;;;29.16;26.13;100381.72;5048939;28;20025;-44
2022/11/01 10:01:37;;;;;;;11.18;4.32;;;;;;;29.16;26.50;100365.28;5048503;28;20169;-42
2022/11/01 10:04:38;;;;;;;9.80;3.92;;;;;;;28.91;27.49;100366.69;5048931;28;20040;-42
2022/11/01 10:07:23;;;;;;;9.82;4.20;;;;;;;29.17;26.87;100364.16;5048399;28;20074;-44
2022/11/01 10:10:16;;;;;;;13.10;3.80;;;;;;;29.48;25.93;100361.41;5049621;28;20055;-44
2022/11/01 10:12:58;;;;;;;12.45;3.97;;;;;;;28.09;27.73;100361.13;5047944;28;20054;-43
2022/11/01 10:15:53;;;;;;;13.13;3.95;;;;;;;28.44;27.70;100353.25;5048755;28;20086;-45
2022/11/01 10:18:31;;;;;;;12.38;4.10;;;;;;;28.84;27.21;100356.16;5048354;28;20428;-44
2022/11/01 10:21:12;;;;;;;17.05;4.43;;;;;;;29.57;26.79;100347.75;5047599;28;20025;-42
2022/11/01 10:23:47;;;;;;;12.50;4.25;;;;;;;30.02;26.17;100342.91;5048515;28;20049;-42
2022/11/01 10:26:19;;;;;;;8.27;3.90;;;;;;;30.26;25.37;100338.09;5048045;28;20020;-42
2022/11/01 10:29:26;;;;;;;13.95;3.80;;;;;;;29.63;25.78;100336.31;5049194;28;20399;-43
2022/11/01 10:31:53;;;;;;;9.50;3.90;;;;;;;29.09;26.42;100342.94;5047199;28;20469;-44
2022/11/01 10:34:33;;;;;;;12.07;3.83;;;;;;;29.35;26.32;100340.38;5050562;28;20028;-46
2022/11/01 10:37:36;;;;;;;7.88;3.83;;;;;;;29.66;25.90;100323.88;5050511;28;20037;-43
2022/11/01 10:40:17;;;;;;;8.52;3.70;;;;;;;29.22;26.23;100325.66;5050338;28;20037;-44
2022/11/01 10:42:43;;;;;;;9.02;3.35;;;;;;;29.53;26.35;100314.69;5050295;28;20048;-43
2022/11/01 10:45:14;;;;;;;11.73;3.38;;;;;;;29.76;25.51;100309.94;5046869;28;20699;-43
2022/11/01 10:47:42;;;;;;;7.82;3.72;;;;;;;29.90;25.54;100301.56;5050327;28;20043;-44
2022/11/01 10:50:10;;;;;;;9.50;3.70;;;;;;;29.78;25.66;100306.88;5049763;28;20021;-44
2022/11/01 10:52:50;;;;;;;8.57;3.33;;;;;;;28.85;26.56;100312.03;5049585;28;20487;-44
2022/11/01 10:55:32;;;;;;;8.35;3.45;;;;;;;28.06;27.88;100307.84;5048600;28;20059;-43
2022/11/01 10:58:18;;;;;;;10.80;3.22;;;;;;;28.47;27.59;100300.63;5030374;28;20049;-43
2022/11/01 11:00:44;;;;;;;11.02;4.32;;;;;;;29.18;26.91;100297.25;5047327;28;20143;-42
2022/11/01 11:03:27;;;;;;;9.00;3.95;;;;;;;28.48;27.17;100294.03;5053630;28;20473;-42
2022/11/01 11:05:55;;;;;;;12.43;3.40;;;;;;;28.36;27.55;100285.56;5053418;28;20044;-43
2022/11/01 11:08:23;;;;;;;9.55;3.13;;;;;;;28.63;26.96;100290.94;5051983;28;20021;-43
2022/11/01 11:10:49;;;;;;;11.20;3.53;;;;;;;29.25;26.63;100270.22;5051656;28;20039;-41
2022/11/01 11:13:19;;;;;;;11.05;3.53;;;;;;;29.77;25.74;100269.59;5052806;28;20287;-47
2022/11/01 11:15:53;;;;;;;8.57;3.45;;;;;;;30.17;25.42;100275.75;5053241;28;20025;-43
2022/11/01 11:18:38;;;;;;;9.77;3.30;;;;;;;30.57;24.58;100267.38;5052821;28;20388;-44
2022/11/01 11:21:12;;;;;;;8.98;3.20;;;;;;;30.40;24.86;100262.72;5052577;28;20032;-42
2022/11/01 11:23:43;;;;;;;10.85;3.40;;;;;;;30.32;25.45;100263.53;5053071;28;20509;-43
2022/11/01 11:26:15;;;;;;;10.35;3.70;;;;;;;30.52;24.92;100253.84;5053487;28;20021;-45
2022/11/01 11:28:46;;;;;;;11.35;3.38;;;;;;;30.59;24.86;100253.31;5052882;28;20104;-43
2022/11/01 11:31:20;;;;;;;13.05;3.10;;;;;;;30.24;24.92;100250.59;5052586;28;20554;-45
2022/11/01 11:33:55;;;;;;;11.07;3.42;;;;;;;30.01;25.51;100250.75;5053112;28;20098;-47
2022/11/01 11:36:36;;;;;;;15.07;3.20;;;;;;;30.06;25.14;100249.78;5053022;28;20025;-44
2022/11/01 11:39:02;;;;;;;8.55;3.00;;;;;;;30.12;24.62;100247.66;5052999;28;20025;-44